createdAt,value
2019-04-07T00:00:02.725Z,0.00
2019-04-07T00:01:02.722Z,0.00
2019-04-07T00:02:02.816Z,0.00
2019-04-07T00:03:02.688Z,0.00
2019-04-07T00:04:02.678Z,0.00
2019-04-07T00:05:10.969Z,0.00
2019-04-07T00:06:04.156Z,0.00
2019-04-07T00:07:02.640Z,0.00
2019-04-07T00:08:02.630Z,0.00
2019-04-07T00:09:02.750Z,0.00
2019-04-07T00:10:02.857Z,0.00
2019-04-07T00:11:02.982Z,0.00
2019-04-07T00:12:02.800Z,0.00
2019-04-07T00:13:02.867Z,0.00
2019-04-07T00:14:02.564Z,0.00
2019-04-07T00:15:02.561Z,0.00
2019-04-07T00:16:02.553Z,0.00
2019-04-07T00:17:02.521Z,0.00
2019-04-07T00:18:02.521Z,0.00
2019-04-07T00:19:02.508Z,0.00
2019-04-07T00:20:02.509Z,0.00
2019-04-07T00:21:02.500Z,0.00
2019-04-07T00:22:02.503Z,0.00
2019-04-07T00:23:02.461Z,0.00
2019-04-07T00:24:02.508Z,0.00
2019-04-07T00:25:02.607Z,0.00
2019-04-07T00:26:02.534Z,0.00
2019-04-07T00:27:02.587Z,0.00
2019-04-07T00:28:02.584Z,0.00
2019-04-07T00:29:02.403Z,0.00
2019-04-07T00:30:02.375Z,0.00
2019-04-07T00:31:02.538Z,0.00
2019-04-07T00:32:02.556Z,0.00
2019-04-07T00:33:02.340Z,0.00
2019-04-07T00:34:02.804Z,0.00
2019-04-07T00:35:02.318Z,0.00
2019-04-07T00:36:02.714Z,0.00
2019-04-07T00:37:03.056Z,0.00
2019-04-07T00:38:02.980Z,0.00
2019-04-07T00:39:02.709Z,0.00
2019-04-07T00:40:02.320Z,0.00
2019-04-07T00:41:02.248Z,0.00
2019-04-07T00:42:02.880Z,0.00
2019-04-07T00:43:02.230Z,0.00
2019-04-07T00:44:02.454Z,0.00
2019-04-07T00:45:02.240Z,0.00
2019-04-07T00:46:02.407Z,0.00
2019-04-07T00:47:02.215Z,0.00
2019-04-07T00:48:02.193Z,0.00
2019-04-07T00:49:02.907Z,0.00
2019-04-07T00:50:02.910Z,0.00
2019-04-07T00:51:02.136Z,0.00
2019-04-07T00:52:02.823Z,0.00
2019-04-07T00:53:02.129Z,0.00
2019-04-07T00:54:02.113Z,0.00
2019-04-07T00:55:02.314Z,0.00
2019-04-07T00:56:02.084Z,0.00
2019-04-07T00:57:02.084Z,0.00
2019-04-07T00:58:02.587Z,0.00
2019-04-07T00:59:02.647Z,0.00
2019-04-07T01:00:02.847Z,0.00
2019-04-07T01:01:02.033Z,0.00
2019-04-07T01:02:02.566Z,0.00
2019-04-07T01:03:02.017Z,0.00
2019-04-07T01:04:01.994Z,0.00
2019-04-07T01:05:02.518Z,0.00
2019-04-07T01:06:02.216Z,0.00
2019-04-07T01:07:02.701Z,0.00
2019-04-07T01:08:01.948Z,0.00
2019-04-07T01:09:01.937Z,0.00
2019-04-07T01:10:02.174Z,0.00
2019-04-07T01:11:02.389Z,0.00
2019-04-07T01:12:01.918Z,0.00
2019-04-07T01:13:01.890Z,0.00
2019-04-07T01:14:01.881Z,0.00
2019-04-07T01:15:02.297Z,0.00
2019-04-07T01:16:01.878Z,0.00
2019-04-07T01:17:02.415Z,0.00
2019-04-07T01:18:02.132Z,0.00
2019-04-07T01:19:02.427Z,0.00
2019-04-07T01:20:01.816Z,0.00
2019-04-07T01:21:02.232Z,0.00
2019-04-07T01:22:02.373Z,0.00
2019-04-07T01:23:01.783Z,0.00
2019-04-07T01:24:02.327Z,0.00
2019-04-07T01:25:01.758Z,0.00
2019-04-07T01:26:01.951Z,0.00
2019-04-07T01:27:01.760Z,0.00
2019-04-07T01:28:01.994Z,0.00
2019-04-07T01:29:02.982Z,0.00
2019-04-07T01:30:02.055Z,0.00
2019-04-07T01:31:02.329Z,0.00
2019-04-07T01:32:01.696Z,0.00
2019-04-07T01:33:02.183Z,0.00
2019-04-07T01:34:02.161Z,0.00
2019-04-07T01:35:02.391Z,0.00
2019-04-07T01:36:02.046Z,0.00
2019-04-07T01:37:01.617Z,0.00
2019-04-07T01:38:01.634Z,0.00
2019-04-07T01:39:01.597Z,0.00
2019-04-07T01:40:01.611Z,0.00
2019-04-07T01:41:02.002Z,0.00
2019-04-07T01:42:01.645Z,0.00
2019-04-07T01:43:01.568Z,0.00
2019-04-07T01:44:01.547Z,0.00
2019-04-07T01:45:01.568Z,0.00
2019-04-07T01:46:02.181Z,0.00
2019-04-07T01:47:01.505Z,0.00
2019-04-07T01:48:01.508Z,0.00
2019-04-07T01:49:02.149Z,0.00
2019-04-07T01:50:02.169Z,0.00
2019-04-07T01:51:01.512Z,0.00
2019-04-07T01:52:01.926Z,0.00
2019-04-07T01:53:01.459Z,0.00
2019-04-07T01:54:02.071Z,0.00
2019-04-07T01:55:01.436Z,0.00
2019-04-07T01:56:01.806Z,0.00
2019-04-07T01:57:01.444Z,0.00
2019-04-07T01:58:02.044Z,0.00
2019-04-07T01:59:01.561Z,0.00
2019-04-07T02:00:01.941Z,0.00
2019-04-07T02:01:02.019Z,0.00
2019-04-07T02:02:02.017Z,0.00
2019-04-07T02:03:01.344Z,0.00
2019-04-07T02:04:01.744Z,0.00
2019-04-07T02:05:01.326Z,0.00
2019-04-07T02:06:03.806Z,0.00
2019-04-07T02:07:01.839Z,0.00
2019-04-07T02:08:01.354Z,0.00
2019-04-07T02:09:01.812Z,0.00
2019-04-07T02:10:01.241Z,0.00
2019-04-07T02:11:01.364Z,0.00
2019-04-07T02:12:01.894Z,0.00
2019-04-07T02:13:02.057Z,0.00
2019-04-07T02:14:01.205Z,0.00
2019-04-07T02:15:01.218Z,0.00
2019-04-07T02:16:01.176Z,0.00
2019-04-07T02:17:01.869Z,0.00
2019-04-07T02:18:01.183Z,0.00
2019-04-07T02:19:01.963Z,0.00
2019-04-07T02:20:01.352Z,0.00
2019-04-07T02:21:01.119Z,0.00
2019-04-07T02:22:01.106Z,0.00
2019-04-07T02:23:01.114Z,0.00
2019-04-07T02:24:01.088Z,0.00
2019-04-07T02:25:01.791Z,0.00
2019-04-07T02:26:01.078Z,0.00
2019-04-07T02:27:01.054Z,0.00
2019-04-07T02:28:01.150Z,0.00
2019-04-07T02:29:01.602Z,0.00
2019-04-07T02:30:01.022Z,0.00
2019-04-07T02:31:01.048Z,0.00
2019-04-07T02:32:01.451Z,0.00
2019-04-07T02:33:02.148Z,0.00
2019-04-07T02:34:00.999Z,0.00
2019-04-07T02:35:01.523Z,0.00
2019-04-07T02:36:15.804Z,0.00
2019-04-07T02:37:03.014Z,0.00
2019-04-07T02:38:02.047Z,0.00
2019-04-07T02:39:00.953Z,0.00
2019-04-07T02:40:00.923Z,0.00
2019-04-07T02:41:01.768Z,0.00
2019-04-07T02:42:00.884Z,0.00
2019-04-07T02:43:01.840Z,0.00
2019-04-07T02:44:01.596Z,0.00
2019-04-07T02:45:01.384Z,0.00
2019-04-07T02:46:00.837Z,0.00
2019-04-07T02:47:00.949Z,0.00
2019-04-07T02:48:01.147Z,0.00
2019-04-07T02:49:01.778Z,0.00
2019-04-07T02:50:01.677Z,0.00
2019-04-07T02:51:01.308Z,0.00
2019-04-07T02:52:00.771Z,0.00
2019-04-07T02:53:01.545Z,0.00
2019-04-07T02:54:00.854Z,0.00
2019-04-07T02:55:01.094Z,0.00
2019-04-07T02:56:01.874Z,0.00
2019-04-07T02:57:00.717Z,0.00
2019-04-07T02:58:01.532Z,0.00
2019-04-07T02:59:01.327Z,0.00
2019-04-07T03:00:01.131Z,0.00
2019-04-07T03:01:01.771Z,0.00
2019-04-07T03:02:00.743Z,0.00
2019-04-07T03:03:01.631Z,0.00
2019-04-07T03:04:00.657Z,0.00
2019-04-07T03:05:00.629Z,0.00
2019-04-07T03:06:01.832Z,0.00
2019-04-07T03:07:00.671Z,0.00
2019-04-07T03:08:01.581Z,0.00
2019-04-07T03:09:00.597Z,0.00
2019-04-07T03:10:00.575Z,0.00
2019-04-07T03:11:00.558Z,0.00
2019-04-07T03:12:00.548Z,0.00
2019-04-07T03:13:01.003Z,0.00
2019-04-07T03:14:00.724Z,0.00
2019-04-07T03:15:00.627Z,0.00
2019-04-07T03:16:00.814Z,0.00
2019-04-07T03:17:00.499Z,0.00
2019-04-07T03:18:00.604Z,0.00
2019-04-07T03:19:00.596Z,0.00
2019-04-07T03:20:00.824Z,0.00
2019-04-07T03:21:01.183Z,0.00
2019-04-07T03:22:00.969Z,0.00
2019-04-07T03:23:00.456Z,0.00
2019-04-07T03:24:00.443Z,0.00
2019-04-07T03:25:00.399Z,0.00
2019-04-07T03:26:00.857Z,0.00
2019-04-07T03:27:00.837Z,0.00
2019-04-07T03:28:00.525Z,0.00
2019-04-07T03:29:01.222Z,0.00
2019-04-07T03:30:00.906Z,0.00
2019-04-07T03:31:02.184Z,0.00
2019-04-07T03:32:00.580Z,0.00
2019-04-07T03:33:02.559Z,0.00
2019-04-07T03:34:03.846Z,0.00
2019-04-07T03:35:00.313Z,0.00
2019-04-07T03:36:02.869Z,0.00
2019-04-07T03:37:25.824Z,0.00
2019-04-07T03:38:02.019Z,0.00
2019-04-07T03:39:00.894Z,0.00
2019-04-07T03:40:00.914Z,0.00
2019-04-07T03:41:00.260Z,0.00
2019-04-07T03:42:01.061Z,0.00
2019-04-07T03:43:00.196Z,0.00
2019-04-07T03:44:01.202Z,0.00
2019-04-07T03:45:00.763Z,0.00
2019-04-07T03:46:00.341Z,0.00
2019-04-07T03:47:01.372Z,0.00
2019-04-07T03:48:00.666Z,0.00
2019-04-07T03:49:00.127Z,0.00
2019-04-07T03:50:00.143Z,0.00
2019-04-07T03:51:01.414Z,0.00
2019-04-07T03:52:00.101Z,0.00
2019-04-07T03:53:00.083Z,0.00
2019-04-07T03:54:00.652Z,0.00
2019-04-07T03:55:01.210Z,0.00
2019-04-07T03:56:00.058Z,0.00
2019-04-07T03:57:00.449Z,0.00
2019-04-07T03:58:00.199Z,4.00
2019-04-07T03:59:00.011Z,4.00
2019-04-07T04:00:00.615Z,0.00
2019-04-07T04:01:00.605Z,4.00
2019-04-07T04:02:00.190Z,4.00
2019-04-07T04:03:00.385Z,4.00
2019-04-07T04:04:00.694Z,8.00
2019-04-07T04:05:00.872Z,4.00
2019-04-07T04:05:59.935Z,8.00
2019-04-07T04:07:00.219Z,8.00
2019-04-07T04:07:59.916Z,8.00
2019-04-07T04:09:00.520Z,12.00
2019-04-07T04:09:59.913Z,16.00
2019-04-07T04:11:00.130Z,16.00
2019-04-07T04:12:00.194Z,20.00
2019-04-07T04:13:00.863Z,24.00
2019-04-07T04:13:59.850Z,28.00
2019-04-07T04:15:00.515Z,28.00
2019-04-07T04:16:00.784Z,36.00
2019-04-07T04:17:00.083Z,40.00
2019-04-07T04:17:59.803Z,44.00
2019-04-07T04:19:00.144Z,52.00
2019-04-07T04:19:59.969Z,60.00
2019-04-07T04:20:59.791Z,64.00
2019-04-07T04:22:00.640Z,76.00
2019-04-07T04:22:59.859Z,84.00
2019-04-07T04:24:00.565Z,92.00
2019-04-07T04:25:00.510Z,104.00
2019-04-07T04:25:59.728Z,112.00
2019-04-07T04:26:59.708Z,124.00
2019-04-07T04:27:59.697Z,140.00
2019-04-07T04:28:59.907Z,152.00
2019-04-07T04:30:00.816Z,168.00
2019-04-07T04:30:59.903Z,180.00
2019-04-07T04:31:59.767Z,192.00
2019-04-07T04:32:59.811Z,212.00
2019-04-07T04:33:59.625Z,228.00
2019-04-07T04:34:59.617Z,248.00
2019-04-07T04:36:00.522Z,260.00
2019-04-07T04:36:59.969Z,284.00
2019-04-07T04:37:59.823Z,300.00
2019-04-07T04:39:00.569Z,320.00
2019-04-07T04:39:59.782Z,340.00
2019-04-07T04:41:00.144Z,360.00
2019-04-07T04:41:59.921Z,380.00
2019-04-07T04:42:59.521Z,404.00
2019-04-07T04:44:00.404Z,424.00
2019-04-07T04:44:59.501Z,444.00
2019-04-07T04:45:59.982Z,468.00
2019-04-07T04:47:01.232Z,488.00
2019-04-07T04:48:00.189Z,516.00
2019-04-07T04:48:59.459Z,536.00
2019-04-07T04:49:59.844Z,560.00
2019-04-07T04:50:59.902Z,588.00
2019-04-07T04:52:00.329Z,612.00
2019-04-07T04:52:59.881Z,632.00
2019-04-07T04:53:59.400Z,660.00
2019-04-07T04:54:59.390Z,684.00
2019-04-07T04:55:59.374Z,708.00
2019-04-07T04:57:00.149Z,736.00
2019-04-07T04:57:59.357Z,760.00
2019-04-07T04:58:59.801Z,788.00
2019-04-07T04:59:59.334Z,812.00
2019-04-07T05:00:59.330Z,840.00
2019-04-07T05:01:59.868Z,864.00
2019-04-07T05:02:59.411Z,888.00
2019-04-07T05:03:59.435Z,916.00
2019-04-07T05:04:59.386Z,940.00
2019-04-07T05:05:59.269Z,968.00
2019-04-07T05:06:59.390Z,996.00
2019-04-07T05:08:03.613Z,1020.00
2019-04-07T05:09:01.084Z,1048.00
2019-04-07T05:10:00.009Z,1068.00
2019-04-07T05:10:59.829Z,1096.00
2019-04-07T05:11:59.217Z,1120.00
2019-04-07T05:12:59.184Z,1148.00
2019-04-07T05:13:59.326Z,1172.00
2019-04-07T05:14:59.164Z,1196.00
2019-04-07T05:15:59.444Z,1224.00
2019-04-07T05:16:59.511Z,1248.00
2019-04-07T05:17:59.133Z,1272.00
2019-04-07T05:18:59.644Z,1292.00
2019-04-07T05:19:59.102Z,1320.00
2019-04-07T05:20:59.757Z,1344.00
2019-04-07T05:21:59.842Z,1368.00
2019-04-07T05:22:59.791Z,1392.00
2019-04-07T05:23:59.214Z,1416.00
2019-04-07T05:24:59.043Z,1444.00
2019-04-07T05:25:59.239Z,1468.00
2019-04-07T05:26:59.042Z,1492.00
2019-04-07T05:27:59.014Z,1516.00
2019-04-07T05:28:59.393Z,1536.00
2019-04-07T05:29:58.985Z,1564.00
2019-04-07T05:30:59.115Z,1584.00
2019-04-07T05:31:59.169Z,1608.00
2019-04-07T05:32:59.090Z,1628.00
2019-04-07T05:34:00.295Z,1652.00
2019-04-07T05:34:58.935Z,1680.00
2019-04-07T05:35:59.305Z,1700.00
2019-04-07T05:36:58.931Z,1728.00
2019-04-07T05:38:02.680Z,1752.00
2019-04-07T05:38:59.950Z,1780.00
2019-04-07T05:39:59.156Z,1804.00
2019-04-07T05:40:58.870Z,1836.00
2019-04-07T05:41:59.218Z,1860.00
2019-04-07T05:42:58.842Z,1888.00
2019-04-07T05:43:58.836Z,1916.00
2019-04-07T05:44:58.819Z,1940.00
2019-04-07T05:45:59.291Z,1972.00
2019-04-07T05:46:58.827Z,1996.00
2019-04-07T05:47:58.874Z,2028.00
2019-04-07T05:48:58.893Z,2056.00
2019-04-07T05:49:59.636Z,2084.00
2019-04-07T05:51:00.536Z,2112.00
2019-04-07T05:52:03.859Z,2144.00
2019-04-07T05:52:59.752Z,2168.00
2019-04-07T05:53:59.313Z,2200.00
2019-04-07T05:54:58.797Z,2232.00
2019-04-07T05:55:58.697Z,2260.00
2019-04-07T05:57:01.183Z,2292.00
2019-04-07T05:57:58.745Z,2328.00
2019-04-07T05:58:58.659Z,2376.00
2019-04-07T05:59:59.251Z,2444.00
2019-04-07T06:00:58.725Z,2516.00
2019-04-07T06:02:01.545Z,2592.00
2019-04-07T06:03:01.265Z,2732.00
2019-04-07T06:03:59.982Z,2752.00
2019-04-07T06:05:00.288Z,2680.00
2019-04-07T06:05:59.286Z,2664.00
2019-04-07T06:06:59.113Z,2648.00
2019-04-07T06:08:02.693Z,2640.00
2019-04-07T06:08:59.810Z,2648.00
2019-04-07T06:09:58.807Z,2672.00
2019-04-07T06:11:02.045Z,2704.00
2019-04-07T06:11:58.725Z,2736.00
2019-04-07T06:12:58.531Z,2768.00
2019-04-07T06:13:58.495Z,2800.00
2019-04-07T06:14:58.593Z,2832.00
2019-04-07T06:15:58.756Z,2860.00
2019-04-07T06:16:58.851Z,2896.00
2019-04-07T06:18:00.538Z,2924.00
2019-04-07T06:18:58.887Z,2956.00
2019-04-07T06:19:58.946Z,2992.00
2019-04-07T06:20:58.568Z,3028.00
2019-04-07T06:21:59.118Z,3060.00
2019-04-07T06:22:58.491Z,3096.00
2019-04-07T06:23:59.854Z,3136.00
2019-04-07T06:25:00.746Z,3172.00
2019-04-07T06:25:59.450Z,3204.00
2019-04-07T06:26:58.726Z,3248.00
2019-04-07T06:27:58.875Z,3276.00
2019-04-07T06:28:58.901Z,3308.00
2019-04-07T06:30:00.077Z,3348.00
2019-04-07T06:31:00.172Z,3380.00
2019-04-07T06:32:02.442Z,3424.00
2019-04-07T06:32:59.300Z,3456.00
2019-04-07T06:33:58.931Z,3484.00
2019-04-07T06:34:58.454Z,3520.00
2019-04-07T06:35:58.258Z,3556.00
2019-04-07T06:36:58.281Z,3584.00
2019-04-07T06:38:04.066Z,3612.00
2019-04-07T06:38:59.384Z,3648.00
2019-04-07T06:39:59.203Z,3684.00
2019-04-07T06:41:00.906Z,3708.00
2019-04-07T06:42:00.423Z,3740.00
2019-04-07T06:42:58.164Z,3772.00
2019-04-07T06:44:08.868Z,3796.00
2019-04-07T06:45:00.401Z,3832.00
2019-04-07T06:45:58.478Z,3856.00
2019-04-07T06:47:01.294Z,3892.00
2019-04-07T06:48:01.143Z,3916.00
2019-04-07T06:48:58.115Z,3948.00
2019-04-07T06:49:58.555Z,3984.00
2019-04-07T06:50:59.737Z,4012.00
2019-04-07T06:52:00.691Z,4040.00
2019-04-07T06:52:58.830Z,4080.00
2019-04-07T06:53:58.060Z,4108.00
2019-04-07T06:54:58.040Z,4140.00
2019-04-07T06:56:01.359Z,4172.00
2019-04-07T06:56:58.012Z,4200.00
2019-04-07T06:57:58.235Z,4232.00
2019-04-07T06:58:58.140Z,4264.00
2019-04-07T06:59:57.984Z,4292.00
2019-04-07T07:01:00.274Z,4320.00
2019-04-07T07:01:59.392Z,4356.00
2019-04-07T07:02:58.914Z,4384.00
2019-04-07T07:03:58.548Z,4420.00
2019-04-07T07:04:58.281Z,4448.00
2019-04-07T07:06:00.205Z,4476.00
2019-04-07T07:06:57.894Z,4500.00
2019-04-07T07:07:57.887Z,4532.00
2019-04-07T07:08:58.360Z,4560.00
2019-04-07T07:09:59.888Z,4584.00
2019-04-07T07:10:58.467Z,4612.00
2019-04-07T07:11:58.804Z,4640.00
2019-04-07T07:13:01.656Z,4656.00
2019-04-07T07:13:57.831Z,4680.00
2019-04-07T07:14:58.323Z,4704.00
2019-04-07T07:15:58.524Z,4728.00
2019-04-07T07:16:58.700Z,4748.00
2019-04-07T07:17:59.256Z,4772.00
2019-04-07T07:18:58.753Z,4796.00
2019-04-07T07:20:01.312Z,4816.00
2019-04-07T07:21:02.547Z,4848.00
2019-04-07T07:21:57.973Z,4872.00
2019-04-07T07:23:00.340Z,4892.00
2019-04-07T07:23:57.961Z,4924.00
2019-04-07T07:24:59.854Z,4952.00
2019-04-07T07:26:00.888Z,4972.00
2019-04-07T07:26:58.663Z,5008.00
2019-04-07T07:27:57.808Z,5024.00
2019-04-07T07:28:58.303Z,5056.00
2019-04-07T07:29:57.845Z,5088.00
2019-04-07T07:30:57.631Z,5124.00
2019-04-07T07:32:02.488Z,5144.00
2019-04-07T07:32:58.612Z,5172.00
2019-04-07T07:33:58.260Z,5192.00
2019-04-07T07:34:57.682Z,5212.00
2019-04-07T07:35:58.294Z,5236.00
2019-04-07T07:36:58.739Z,5260.00
2019-04-07T07:37:59.504Z,5284.00
2019-04-07T07:39:01.785Z,5304.00
2019-04-07T07:39:58.561Z,5332.00
2019-04-07T07:41:00.941Z,5356.00
2019-04-07T07:41:58.339Z,5372.00
2019-04-07T07:42:59.111Z,5396.00
2019-04-07T07:44:00.660Z,5412.00
2019-04-07T07:44:58.636Z,5436.00
2019-04-07T07:45:57.662Z,5452.00
2019-04-07T07:46:58.167Z,5476.00
2019-04-07T07:47:57.712Z,5492.00
2019-04-07T07:49:00.784Z,5528.00
2019-04-07T07:49:57.589Z,5540.00
2019-04-07T07:50:57.425Z,5548.00
2019-04-07T07:51:58.094Z,5572.00
2019-04-07T07:52:58.129Z,5604.00
2019-04-07T07:54:00.740Z,5604.00
2019-04-07T07:54:59.799Z,5632.00
2019-04-07T07:55:57.633Z,5656.00
2019-04-07T07:56:58.001Z,5676.00
2019-04-07T07:57:59.186Z,5696.00
2019-04-07T07:58:59.897Z,5708.00
2019-04-07T07:59:57.415Z,5732.00
2019-04-07T08:00:59.606Z,5744.00
2019-04-07T08:01:57.840Z,5756.00
2019-04-07T08:02:57.263Z,5780.00
2019-04-07T08:03:57.253Z,5804.00
2019-04-07T08:04:59.113Z,5808.00
2019-04-07T08:05:57.868Z,5836.00
2019-04-07T08:06:57.851Z,5844.00
2019-04-07T08:07:57.379Z,5844.00
2019-04-07T08:09:07.615Z,5864.00
2019-04-07T08:09:58.211Z,5888.00
2019-04-07T08:11:00.681Z,5912.00
2019-04-07T08:11:57.774Z,5928.00
2019-04-07T08:12:57.422Z,5960.00
2019-04-07T08:13:57.745Z,5960.00
2019-04-07T08:14:58.665Z,5980.00
2019-04-07T08:15:58.555Z,5988.00
2019-04-07T08:17:00.195Z,6004.00
2019-04-07T08:17:58.556Z,6028.00
2019-04-07T08:18:59.199Z,6052.00
2019-04-07T08:19:57.751Z,6064.00
2019-04-07T08:20:57.779Z,6080.00
2019-04-07T08:21:57.323Z,6124.00
2019-04-07T08:22:57.079Z,6144.00
2019-04-07T08:23:57.837Z,6144.00
2019-04-07T08:24:57.033Z,6164.00
2019-04-07T08:25:57.893Z,6204.00
2019-04-07T08:26:58.851Z,6232.00
2019-04-07T08:27:57.444Z,6268.00
2019-04-07T08:28:56.977Z,6308.00
2019-04-07T08:29:57.209Z,6324.00
2019-04-07T08:30:57.526Z,6324.00
2019-04-07T08:31:57.662Z,6332.00
2019-04-07T08:32:59.290Z,6352.00
2019-04-07T08:33:59.649Z,6412.00
2019-04-07T08:34:57.005Z,6436.00
2019-04-07T08:35:57.749Z,6480.00
2019-04-07T08:36:57.449Z,6500.00
2019-04-07T08:37:57.595Z,6504.00
2019-04-07T08:38:57.191Z,6500.00
2019-04-07T08:39:57.957Z,6556.00
2019-04-07T08:40:57.607Z,6572.00
2019-04-07T08:41:57.227Z,6624.00
2019-04-07T08:42:57.288Z,6644.00
2019-04-07T08:43:57.874Z,6664.00
2019-04-07T08:44:58.709Z,6720.00
2019-04-07T08:45:56.768Z,6728.00
2019-04-07T08:46:57.965Z,6728.00
2019-04-07T08:47:56.750Z,6764.00
2019-04-07T08:48:56.748Z,6836.00
2019-04-07T08:49:57.762Z,6836.00
2019-04-07T08:50:58.705Z,6828.00
2019-04-07T08:51:57.170Z,6860.00
2019-04-07T08:52:56.689Z,6872.00
2019-04-07T08:53:57.444Z,6924.00
2019-04-07T08:54:56.694Z,6960.00
2019-04-07T08:55:57.006Z,6932.00
2019-04-07T08:56:58.215Z,6968.00
2019-04-07T08:58:00.100Z,7016.00
2019-04-07T08:58:57.957Z,7032.00
2019-04-07T08:59:56.814Z,7088.00
2019-04-07T09:00:57.294Z,7072.00
2019-04-07T09:01:56.994Z,7128.00
2019-04-07T09:03:03.095Z,7148.00
2019-04-07T09:03:57.570Z,7184.00
2019-04-07T09:04:56.943Z,7172.00
2019-04-07T09:05:57.561Z,7204.00
2019-04-07T09:06:59.361Z,7232.00
2019-04-07T09:07:57.372Z,7260.00
2019-04-07T09:08:56.519Z,7240.00
2019-04-07T09:09:56.715Z,7292.00
2019-04-07T09:10:56.685Z,7368.00
2019-04-07T09:11:57.525Z,7380.00
2019-04-07T09:12:59.534Z,7416.00
2019-04-07T09:13:58.195Z,7420.00
2019-04-07T09:14:57.021Z,7472.00
2019-04-07T09:15:56.763Z,7464.00
2019-04-07T09:16:58.134Z,7500.00
2019-04-07T09:17:56.685Z,7504.00
2019-04-07T09:19:01.831Z,7588.00
2019-04-07T09:19:58.209Z,7600.00
2019-04-07T09:20:57.187Z,7572.00
2019-04-07T09:21:57.016Z,7696.00
2019-04-07T09:22:57.920Z,7724.00
2019-04-07T09:23:57.544Z,7736.00
2019-04-07T09:24:56.712Z,7828.00
2019-04-07T09:25:56.326Z,7796.00
2019-04-07T09:26:56.326Z,7848.00
2019-04-07T09:27:57.210Z,7824.00
2019-04-07T09:28:56.300Z,7872.00
2019-04-07T09:29:58.263Z,7924.00
2019-04-07T09:30:56.389Z,7972.00
2019-04-07T09:31:56.513Z,8000.00
2019-04-07T09:32:56.801Z,8064.00
2019-04-07T09:33:56.261Z,8072.00
2019-04-07T09:34:57.064Z,8092.00
2019-04-07T09:35:58.888Z,8184.00
2019-04-07T09:36:56.197Z,8172.00
2019-04-07T09:37:56.241Z,8240.00
2019-04-07T09:38:59.940Z,8332.00
2019-04-07T09:40:01.026Z,8372.00
2019-04-07T09:40:57.256Z,8432.00
2019-04-07T09:41:56.134Z,8444.00
2019-04-07T09:42:58.718Z,8472.00
2019-04-07T09:43:56.133Z,8564.00
2019-04-07T09:44:56.343Z,8560.00
2019-04-07T09:45:56.102Z,8564.00
2019-04-07T09:46:56.082Z,8668.00
2019-04-07T09:47:56.453Z,8692.00
2019-04-07T09:48:56.060Z,8744.00
2019-04-07T09:49:57.346Z,8864.00
2019-04-07T09:51:01.128Z,8912.00
2019-04-07T09:51:57.476Z,9000.00
2019-04-07T09:52:56.072Z,9052.00
2019-04-07T09:53:56.658Z,9168.00
2019-04-07T09:54:56.001Z,9260.00
2019-04-07T09:55:57.967Z,9364.00
2019-04-07T09:56:56.217Z,9592.00
2019-04-07T09:57:56.055Z,10248.00
2019-04-07T09:58:56.762Z,11112.00
2019-04-07T09:59:56.475Z,11876.00
2019-04-07T10:00:57.692Z,12476.00
2019-04-07T10:01:59.420Z,13252.00
2019-04-07T10:02:55.915Z,15356.00
2019-04-07T10:03:55.911Z,19008.00
2019-04-07T10:04:55.881Z,23008.00
2019-04-07T10:05:55.869Z,25024.00
2019-04-07T10:06:55.855Z,25792.00
2019-04-07T10:07:55.848Z,27744.00
2019-04-07T10:08:55.949Z,33216.00
2019-04-07T10:10:07.675Z,39040.00
2019-04-07T10:10:57.252Z,39072.00
2019-04-07T10:11:56.622Z,36800.00
2019-04-07T10:12:56.513Z,38944.00
2019-04-07T10:13:56.537Z,51488.00
2019-04-07T10:14:56.333Z,76288.00
2019-04-07T10:15:56.363Z,85472.00
2019-04-07T10:16:56.329Z,83936.00
2019-04-07T10:17:56.479Z,81888.00
2019-04-07T10:18:56.473Z,80864.00
2019-04-07T10:19:55.735Z,81120.00
2019-04-07T10:20:55.923Z,83808.00
2019-04-07T10:21:56.112Z,83264.00
2019-04-07T10:22:55.673Z,85152.00
2019-04-07T10:23:56.318Z,82208.00
2019-04-07T10:24:55.985Z,79520.00
2019-04-07T10:25:56.131Z,76192.00
2019-04-07T10:26:56.272Z,79168.00
2019-04-07T10:27:55.932Z,79968.00
2019-04-07T10:28:55.710Z,81568.00
2019-04-07T10:29:55.687Z,88320.00
2019-04-07T10:30:56.617Z,88704.00
2019-04-07T10:31:56.569Z,87968.00
2019-04-07T10:32:56.136Z,85120.00
2019-04-07T10:33:56.253Z,84640.00
2019-04-07T10:34:55.568Z,83936.00
2019-04-07T10:35:55.577Z,86496.00
2019-04-07T10:36:55.762Z,86240.00
2019-04-07T10:37:55.515Z,85888.00
2019-04-07T10:38:55.508Z,87136.00
2019-04-07T10:39:57.919Z,87616.00
2019-04-07T10:40:55.591Z,85888.00
2019-04-07T10:41:55.489Z,84608.00
2019-04-07T10:42:57.248Z,84992.00
2019-04-07T10:43:55.818Z,87616.00
2019-04-07T10:44:55.434Z,87264.00
2019-04-07T10:45:56.005Z,89184.00
2019-04-07T10:46:56.036Z,87360.00
2019-04-07T10:47:55.419Z,86336.00
2019-04-07T10:48:55.792Z,85664.00
2019-04-07T10:50:01.932Z,86560.00
2019-04-07T10:50:56.396Z,88288.00
2019-04-07T10:51:55.370Z,98528.00
2019-04-07T10:52:56.176Z,106912.00
2019-04-07T10:53:56.140Z,107968.00
2019-04-07T10:54:55.347Z,107072.00
2019-04-07T10:55:55.361Z,100736.00
2019-04-07T10:56:55.362Z,105440.00
2019-04-07T10:57:55.319Z,115648.00
2019-04-07T10:58:56.622Z,118816.00
2019-04-07T10:59:55.707Z,118944.00
2019-04-07T11:00:55.307Z,122784.00
2019-04-07T11:01:55.261Z,123328.00
2019-04-07T11:02:56.925Z,123584.00
2019-04-07T11:03:56.399Z,122560.00
2019-04-07T11:04:55.291Z,122016.00
2019-04-07T11:05:55.259Z,120160.00
2019-04-07T11:06:55.224Z,124704.00
2019-04-07T11:07:55.875Z,124352.00
2019-04-07T11:08:55.468Z,123776.00
2019-04-07T11:09:55.191Z,124896.00
2019-04-07T11:10:55.532Z,120576.00
2019-04-07T11:11:55.189Z,118400.00
2019-04-07T11:12:55.996Z,121696.00
2019-04-07T11:13:55.471Z,117824.00
2019-04-07T11:14:55.874Z,110336.00
2019-04-07T11:15:55.264Z,107008.00
2019-04-07T11:16:55.121Z,112224.00
2019-04-07T11:17:55.883Z,111616.00
2019-04-07T11:18:55.105Z,112352.00
2019-04-07T11:19:55.098Z,109056.00
2019-04-07T11:20:55.766Z,110112.00
2019-04-07T11:21:55.593Z,113984.00
2019-04-07T11:22:55.073Z,106656.00
2019-04-07T11:23:55.061Z,110048.00
2019-04-07T11:24:55.773Z,106976.00
2019-04-07T11:25:55.065Z,110080.00
2019-04-07T11:26:55.076Z,109568.00
2019-04-07T11:27:55.078Z,113184.00
2019-04-07T11:28:55.596Z,105312.00
2019-04-07T11:29:55.033Z,108480.00
2019-04-07T11:30:54.997Z,105216.00
2019-04-07T11:31:55.008Z,101728.00
2019-04-07T11:32:54.989Z,97408.00
2019-04-07T11:33:55.510Z,100768.00
2019-04-07T11:34:54.979Z,103200.00
2019-04-07T11:35:54.951Z,98976.00
2019-04-07T11:36:54.953Z,86432.00
2019-04-07T11:37:54.941Z,92096.00
2019-04-07T11:38:54.922Z,98464.00
2019-04-07T11:39:54.919Z,100864.00
2019-04-07T11:40:54.946Z,102752.00
2019-04-07T11:41:55.713Z,104736.00
2019-04-07T11:42:55.590Z,104192.00
2019-04-07T11:43:54.876Z,107424.00
2019-04-07T11:44:54.871Z,105216.00
2019-04-07T11:46:00.065Z,108608.00
2019-04-07T11:46:56.273Z,110144.00
2019-04-07T11:47:54.847Z,104800.00
2019-04-07T11:48:54.918Z,102656.00
2019-04-07T11:49:55.213Z,106048.00
2019-04-07T11:50:54.822Z,104256.00
2019-04-07T11:51:55.547Z,105888.00
2019-04-07T11:52:55.127Z,105984.00
2019-04-07T11:53:54.812Z,105728.00
2019-04-07T11:54:55.392Z,106304.00
2019-04-07T11:55:54.804Z,105088.00
2019-04-07T11:56:55.478Z,107680.00
2019-04-07T11:58:07.396Z,105824.00
2019-04-07T11:58:55.740Z,99872.00
2019-04-07T11:59:55.603Z,99520.00
2019-04-07T12:00:54.742Z,99264.00
2019-04-07T12:01:55.308Z,99392.00
2019-04-07T12:02:55.580Z,97600.00
2019-04-07T12:03:55.735Z,90976.00
2019-04-07T12:04:55.360Z,93632.00
2019-04-07T12:05:55.149Z,87680.00
2019-04-07T12:06:54.739Z,91040.00
2019-04-07T12:07:58.137Z,88544.00
2019-04-07T12:08:54.680Z,94656.00
2019-04-07T12:09:55.242Z,98112.00
2019-04-07T12:11:01.029Z,78240.00
2019-04-07T12:11:55.662Z,74656.00
2019-04-07T12:12:54.900Z,69696.00
2019-04-07T12:13:54.610Z,67840.00
2019-04-07T12:14:54.721Z,58752.00
2019-04-07T12:15:56.024Z,55296.00
2019-04-07T12:16:57.970Z,49984.00
2019-04-07T12:17:54.582Z,46976.00
2019-04-07T12:18:55.481Z,46400.00
2019-04-07T12:19:56.790Z,50144.00
2019-04-07T12:20:54.577Z,51104.00
2019-04-07T12:21:54.718Z,50944.00
2019-04-07T12:22:54.956Z,50272.00
2019-04-07T12:23:55.365Z,50880.00